sensor_id;sensor_type;location;lat;lon;timestamp;pressure;altitude;pressure_sealevel;temperature;humidity
60719;BME280;46567;51.660;5.824;2023-04-26T00:00:48;101850.0;;;5.2;74.5
60719;BME280;46567;51.660;5.824;2023-04-26T00:05:48;101850.0;;;5.2;75.0
60719;BME280;46567;51.660;5.824;2023-04-26T00:10:48;101850.0;;;5.1;75.0
60719;BME280;46567;51.660;5.824;2023-04-26T00:15:48;101860.0;;;5.1;75.0
60719;BME280;46567;51.660;5.824;2023-04-26T00:20:48;101860.0;;;5.1;75.5
60719;BME280;46567;51.660;5.824;2023-04-26T00:25:48;101860.0;;;5.0;75.5
60719;BME280;46567;51.660;5.824;2023-04-26T00:30:48;101840.0;;;5.0;75.5
60719;BME280;46567;51.660;5.824;2023-04-26T00:35:48;101850.0;;;4.9;75.5
60719;BME280;46567;51.660;5.824;2023-04-26T00:40:48;101850.0;;;4.9;75.5
60719;BME280;46567;51.660;5.824;2023-04-26T00:45:48;101850.0;;;4.8;75.5
60719;BME280;46567;51.660;5.824;2023-04-26T00:50:48;101850.0;;;4.7;75.5
60719;BME280;46567;51.660;5.824;2023-04-26T00:55:48;101850.0;;;4.6;76.0
60719;BME280;46567;51.660;5.824;2023-04-26T01:00:48;101850.0;;;4.6;76.0
60719;BME280;46567;51.660;5.824;2023-04-26T01:05:49;101850.0;;;4.5;76.0
60719;BME280;46567;51.660;5.824;2023-04-26T01:10:48;101850.0;;;4.4;76.0
60719;BME280;46567;51.660;5.824;2023-04-26T01:25:48;101860.0;;;4.3;77.0
60719;BME280;46567;51.660;5.824;2023-04-26T01:30:48;101860.0;;;4.3;77.0
60719;BME280;46567;51.660;5.824;2023-04-26T01:35:48;101860.0;;;4.3;77.0
60719;BME280;46567;51.660;5.824;2023-04-26T01:40:48;101860.0;;;4.2;77.5
60719;BME280;46567;51.660;5.824;2023-04-26T01:45:48;101860.0;;;4.2;77.5
60719;BME280;46567;51.660;5.824;2023-04-26T01:50:48;101860.0;;;4.1;77.5
60719;BME280;46567;51.660;5.824;2023-04-26T01:55:48;101860.0;;;4.1;78.0
60719;BME280;46567;51.660;5.824;2023-04-26T02:00:48;101850.0;;;4.1;78.0
60719;BME280;46567;51.660;5.824;2023-04-26T02:05:48;101850.0;;;4.1;78.0
60719;BME280;46567;51.660;5.824;2023-04-26T02:10:48;101850.0;;;4.1;78.5
60719;BME280;46567;51.660;5.824;2023-04-26T02:15:49;101850.0;;;4.0;78.5
60719;BME280;46567;51.660;5.824;2023-04-26T02:20:49;101850.0;;;4.0;79.0
60719;BME280;46567;51.660;5.824;2023-04-26T02:25:48;101850.0;;;4.0;79.0
60719;BME280;46567;51.660;5.824;2023-04-26T02:30:48;101860.0;;;3.9;80.0
60719;BME280;46567;51.660;5.824;2023-04-26T02:35:48;101860.0;;;3.9;80.5
60719;BME280;46567;51.660;5.824;2023-04-26T02:40:48;101850.0;;;3.9;81.0
60719;BME280;46567;51.660;5.824;2023-04-26T02:45:48;101850.0;;;3.9;81.5
60719;BME280;46567;51.660;5.824;2023-04-26T02:50:48;101850.0;;;3.8;81.5
60719;BME280;46567;51.660;5.824;2023-04-26T02:55:48;101850.0;;;3.8;82.0
60719;BME280;46567;51.660;5.824;2023-04-26T03:00:48;101850.0;;;3.8;82.5
60719;BME280;46567;51.660;5.824;2023-04-26T03:05:49;101850.0;;;3.8;82.0
60719;BME280;46567;51.660;5.824;2023-04-26T03:10:48;101840.0;;;3.7;82.0
60719;BME280;46567;51.660;5.824;2023-04-26T03:15:48;101840.0;;;3.7;82.0
60719;BME280;46567;51.660;5.824;2023-04-26T03:20:48;101840.0;;;3.7;82.0
60719;BME280;46567;51.660;5.824;2023-04-26T03:25:49;101840.0;;;3.7;82.0
60719;BME280;46567;51.660;5.824;2023-04-26T03:30:48;101840.0;;;3.7;81.5
60719;BME280;46567;51.660;5.824;2023-04-26T03:35:48;101830.0;;;3.7;81.5
60719;BME280;46567;51.660;5.824;2023-04-26T03:40:48;101830.0;;;3.6;81.5
60719;BME280;46567;51.660;5.824;2023-04-26T03:45:49;101840.0;;;3.6;81.5
60719;BME280;46567;51.660;5.824;2023-04-26T03:50:48;101830.0;;;3.5;81.5
60719;BME280;46567;51.660;5.824;2023-04-26T03:55:49;101820.0;;;3.4;81.5
60719;BME280;46567;51.660;5.824;2023-04-26T04:00:48;101830.0;;;3.4;81.5
60719;BME280;46567;51.660;5.824;2023-04-26T04:05:48;101830.0;;;3.4;81.0
60719;BME280;46567;51.660;5.824;2023-04-26T04:10:49;101830.0;;;3.3;81.0
60719;BME280;46567;51.660;5.824;2023-04-26T04:15:48;101830.0;;;3.2;81.0
60719;BME280;46567;51.660;5.824;2023-04-26T04:20:48;101830.0;;;3.2;82.0
60719;BME280;46567;51.660;5.824;2023-04-26T04:25:48;101830.0;;;3.2;82.0
60719;BME280;46567;51.660;5.824;2023-04-26T04:30:48;101830.0;;;3.2;81.5
60719;BME280;46567;51.660;5.824;2023-04-26T04:35:48;101840.0;;;3.2;82.0
60719;BME280;46567;51.660;5.824;2023-04-26T04:40:49;101840.0;;;3.2;82.0
60719;BME280;46567;51.660;5.824;2023-04-26T04:45:49;101850.0;;;3.2;82.5
60719;BME280;46567;51.660;5.824;2023-04-26T04:50:48;101840.0;;;3.2;82.5
60719;BME280;46567;51.660;5.824;2023-04-26T04:55:48;101850.0;;;3.3;82.5
60719;BME280;46567;51.660;5.824;2023-04-26T05:00:49;101850.0;;;3.4;83.0
60719;BME280;46567;51.660;5.824;2023-04-26T05:05:49;101860.0;;;3.5;83.5
60719;BME280;46567;51.660;5.824;2023-04-26T05:10:48;101860.0;;;3.6;84.0
60719;BME280;46567;51.660;5.824;2023-04-26T05:15:48;101860.0;;;3.7;84.0
60719;BME280;46567;51.660;5.824;2023-04-26T05:20:49;101870.0;;;3.8;84.5
60719;BME280;46567;51.660;5.824;2023-04-26T05:25:49;101870.0;;;3.9;85.0
60719;BME280;46567;51.660;5.824;2023-04-26T05:30:49;101880.0;;;4.0;85.0
60719;BME280;46567;51.660;5.824;2023-04-26T05:35:48;101860.0;;;4.2;85.5
60719;BME280;46567;51.660;5.824;2023-04-26T05:40:49;101880.0;;;4.4;85.5
60719;BME280;46567;51.660;5.824;2023-04-26T05:45:49;101880.0;;;4.5;85.5
60719;BME280;46567;51.660;5.824;2023-04-26T05:50:50;101880.0;;;4.8;85.5
60719;BME280;46567;51.660;5.824;2023-04-26T05:55:49;101880.0;;;5.0;85.0
60719;BME280;46567;51.660;5.824;2023-04-26T06:00:49;101890.0;;;5.2;85.0
60719;BME280;46567;51.660;5.824;2023-04-26T06:05:49;101880.0;;;5.3;85.0
60719;BME280;46567;51.660;5.824;2023-04-26T06:10:49;101880.0;;;5.5;85.0
60719;BME280;46567;51.660;5.824;2023-04-26T06:15:48;101880.0;;;5.6;84.5
60719;BME280;46567;51.660;5.824;2023-04-26T06:20:49;101880.0;;;5.7;84.5
60719;BME280;46567;51.660;5.824;2023-04-26T06:25:49;101880.0;;;5.8;84.0
60719;BME280;46567;51.660;5.824;2023-04-26T06:30:49;101870.0;;;6.1;84.0
60719;BME280;46567;51.660;5.824;2023-04-26T06:35:49;101880.0;;;6.3;84.5
60719;BME280;46567;51.660;5.824;2023-04-26T06:40:48;101880.0;;;6.7;85.0
60719;BME280;46567;51.660;5.824;2023-04-26T06:45:48;101890.0;;;7.1;85.5
60719;BME280;46567;51.660;5.824;2023-04-26T06:50:49;101890.0;;;7.5;84.0
60719;BME280;46567;51.660;5.824;2023-04-26T06:55:48;101880.0;;;7.8;83.0
60719;BME280;46567;51.660;5.824;2023-04-26T07:00:48;101890.0;;;8.1;82.5
60719;BME280;46567;51.660;5.824;2023-04-26T07:05:49;101900.0;;;8.5;82.0
60719;BME280;46567;51.660;5.824;2023-04-26T07:10:48;101900.0;;;8.9;81.0
60719;BME280;46567;51.660;5.824;2023-04-26T07:15:49;101900.0;;;9.1;78.5
60719;BME280;46567;51.660;5.824;2023-04-26T07:20:49;101900.0;;;9.3;77.5
60719;BME280;46567;51.660;5.824;2023-04-26T07:25:48;101900.0;;;9.4;77.0
60719;BME280;46567;51.660;5.824;2023-04-26T07:30:48;101890.0;;;9.6;77.0
60719;BME280;46567;51.660;5.824;2023-04-26T07:35:52;101880.0;;;9.9;75.0
60719;BME280;46567;51.660;5.824;2023-04-26T07:40:49;101890.0;;;10.0;74.5
60719;BME280;46567;51.660;5.824;2023-04-26T07:45:48;101890.0;;;10.1;74.5
60719;BME280;46567;51.660;5.824;2023-04-26T07:50:48;101900.0;;;10.3;74.5
60719;BME280;46567;51.660;5.824;2023-04-26T07:55:49;101890.0;;;10.6;71.5
60719;BME280;46567;51.660;5.824;2023-04-26T08:00:49;101890.0;;;10.7;70.0
60719;BME280;46567;51.660;5.824;2023-04-26T08:05:49;101900.0;;;10.8;69.0
60719;BME280;46567;51.660;5.824;2023-04-26T08:10:48;101900.0;;;10.9;67.0
60719;BME280;46567;51.660;5.824;2023-04-26T08:15:48;101900.0;;;11.0;67.0
60719;BME280;46567;51.660;5.824;2023-04-26T08:20:48;101910.0;;;11.0;65.5
60719;BME280;46567;51.660;5.824;2023-04-26T08:25:49;101920.0;;;11.0;65.0
60719;BME280;46567;51.660;5.824;2023-04-26T08:30:48;101920.0;;;10.9;63.5
60719;BME280;46567;51.660;5.824;2023-04-26T08:35:48;101920.0;;;11.0;63.0
60719;BME280;46567;51.660;5.824;2023-04-26T08:40:50;101920.0;;;11.2;63.5
60719;BME280;46567;51.660;5.824;2023-04-26T08:45:49;101910.0;;;11.4;61.5
60719;BME280;46567;51.660;5.824;2023-04-26T08:50:49;101910.0;;;11.4;59.0
60719;BME280;46567;51.660;5.824;2023-04-26T08:55:49;101910.0;;;11.6;57.5
60719;BME280;46567;51.660;5.824;2023-04-26T09:00:49;101900.0;;;11.7;56.5
60719;BME280;46567;51.660;5.824;2023-04-26T09:05:49;101900.0;;;11.6;56.0
60719;BME280;46567;51.660;5.824;2023-04-26T09:10:48;101890.0;;;11.3;58.0
60719;BME280;46567;51.660;5.824;2023-04-26T09:15:48;101900.0;;;11.2;58.0
60719;BME280;46567;51.660;5.824;2023-04-26T09:21:01;101890.0;;;11.3;58.5
60719;BME280;46567;51.660;5.824;2023-04-26T09:25:49;101890.0;;;11.5;57.0
60719;BME280;46567;51.660;5.824;2023-04-26T09:30:49;101900.0;;;11.6;56.0
60719;BME280;46567;51.660;5.824;2023-04-26T09:35:48;101890.0;;;11.6;54.0
60719;BME280;46567;51.660;5.824;2023-04-26T09:40:49;101880.0;;;11.6;55.5
60719;BME280;46567;51.660;5.824;2023-04-26T09:45:50;101880.0;;;11.7;55.5
60719;BME280;46567;51.660;5.824;2023-04-26T09:50:50;101890.0;;;12.1;55.0
60719;BME280;46567;51.660;5.824;2023-04-26T09:55:49;101880.0;;;12.3;54.0
60719;BME280;46567;51.660;5.824;2023-04-26T10:00:50;101880.0;;;12.2;52.5
60719;BME280;46567;51.660;5.824;2023-04-26T10:05:49;101880.0;;;12.0;52.5
60719;BME280;46567;51.660;5.824;2023-04-26T10:10:49;101880.0;;;11.9;53.0
60719;BME280;46567;51.660;5.824;2023-04-26T10:15:51;101880.0;;;11.8;53.0
60719;BME280;46567;51.660;5.824;2023-04-26T10:20:52;101870.0;;;11.7;54.5
60719;BME280;46567;51.660;5.824;2023-04-26T10:25:49;101890.0;;;11.6;54.0
60719;BME280;46567;51.660;5.824;2023-04-26T10:30:59;101890.0;;;11.5;54.5
60719;BME280;46567;51.660;5.824;2023-04-26T10:36:04;101890.0;;;11.4;56.0
60719;BME280;46567;51.660;5.824;2023-04-26T10:40:49;101880.0;;;11.4;55.5
60719;BME280;46567;51.660;5.824;2023-04-26T10:45:49;101880.0;;;11.3;55.5
60719;BME280;46567;51.660;5.824;2023-04-26T10:51:07;101870.0;;;11.2;56.0
60719;BME280;46567;51.660;5.824;2023-04-26T10:55:49;101860.0;;;11.3;56.0
60719;BME280;46567;51.660;5.824;2023-04-26T11:01:03;101860.0;;;11.3;56.0
60719;BME280;46567;51.660;5.824;2023-04-26T11:05:50;101860.0;;;11.6;55.5
60719;BME280;46567;51.660;5.824;2023-04-26T11:10:58;101860.0;;;11.7;54.5
60719;BME280;46567;51.660;5.824;2023-04-26T11:15:51;101850.0;;;11.9;55.0
60719;BME280;46567;51.660;5.824;2023-04-26T11:20:49;101860.0;;;12.3;55.0
60719;BME280;46567;51.660;5.824;2023-04-26T11:25:49;101850.0;;;12.6;54.0
60719;BME280;46567;51.660;5.824;2023-04-26T11:30:49;101850.0;;;12.9;53.0
60719;BME280;46567;51.660;5.824;2023-04-26T11:35:49;101850.0;;;13.1;51.0
60719;BME280;46567;51.660;5.824;2023-04-26T11:40:52;101840.0;;;13.3;49.5
60719;BME280;46567;51.660;5.824;2023-04-26T11:45:48;101840.0;;;13.3;50.0
60719;BME280;46567;51.660;5.824;2023-04-26T11:50:49;101830.0;;;13.4;50.0
60719;BME280;46567;51.660;5.824;2023-04-26T11:55:49;101830.0;;;13.4;48.5
60719;BME280;46567;51.660;5.824;2023-04-26T12:00:55;101830.0;;;13.5;48.0
60719;BME280;46567;51.660;5.824;2023-04-26T12:05:53;101820.0;;;13.3;45.5
60719;BME280;46567;51.660;5.824;2023-04-26T12:10:49;101830.0;;;13.4;48.5
60719;BME280;46567;51.660;5.824;2023-04-26T12:15:49;101830.0;;;13.4;47.0
60719;BME280;46567;51.660;5.824;2023-04-26T12:20:49;101840.0;;;13.4;47.0
60719;BME280;46567;51.660;5.824;2023-04-26T12:25:52;101830.0;;;13.3;47.5
60719;BME280;46567;51.660;5.824;2023-04-26T12:30:49;101840.0;;;13.0;47.5
60719;BME280;46567;51.660;5.824;2023-04-26T12:35:49;101840.0;;;12.8;48.5
60719;BME280;46567;51.660;5.824;2023-04-26T12:40:49;101840.0;;;12.8;48.5
60719;BME280;46567;51.660;5.824;2023-04-26T12:45:49;101840.0;;;12.6;48.5
60719;BME280;46567;51.660;5.824;2023-04-26T12:50:49;101850.0;;;12.5;48.5
60719;BME280;46567;51.660;5.824;2023-04-26T12:55:49;101850.0;;;12.4;49.0
60719;BME280;46567;51.660;5.824;2023-04-26T13:00:49;101840.0;;;12.4;50.5
60719;BME280;46567;51.660;5.824;2023-04-26T13:05:49;101850.0;;;12.4;51.0
60719;BME280;46567;51.660;5.824;2023-04-26T13:10:49;101850.0;;;12.4;51.0
60719;BME280;46567;51.660;5.824;2023-04-26T13:15:49;101850.0;;;12.5;50.5
60719;BME280;46567;51.660;5.824;2023-04-26T13:20:49;101850.0;;;12.4;51.0
60719;BME280;46567;51.660;5.824;2023-04-26T13:25:49;101850.0;;;12.4;50.5
60719;BME280;46567;51.660;5.824;2023-04-26T13:30:49;101850.0;;;12.4;51.5
60719;BME280;46567;51.660;5.824;2023-04-26T13:35:49;101840.0;;;12.6;51.5
60719;BME280;46567;51.660;5.824;2023-04-26T13:40:49;101840.0;;;12.7;51.0
60719;BME280;46567;51.660;5.824;2023-04-26T13:45:49;101850.0;;;12.8;51.0
60719;BME280;46567;51.660;5.824;2023-04-26T13:50:49;101850.0;;;12.9;50.5
60719;BME280;46567;51.660;5.824;2023-04-26T13:55:49;101840.0;;;13.1;50.5
60719;BME280;46567;51.660;5.824;2023-04-26T14:00:49;101850.0;;;13.1;50.5
60719;BME280;46567;51.660;5.824;2023-04-26T14:05:49;101840.0;;;13.3;50.0
60719;BME280;46567;51.660;5.824;2023-04-26T14:10:49;101830.0;;;13.5;48.5
60719;BME280;46567;51.660;5.824;2023-04-26T14:15:49;101830.0;;;13.5;47.5
60719;BME280;46567;51.660;5.824;2023-04-26T14:20:49;101840.0;;;13.7;48.0
60719;BME280;46567;51.660;5.824;2023-04-26T14:25:50;101840.0;;;13.9;47.5
60719;BME280;46567;51.660;5.824;2023-04-26T14:30:49;101830.0;;;14.0;47.5
60719;BME280;46567;51.660;5.824;2023-04-26T14:35:49;101820.0;;;14.1;46.0
60719;BME280;46567;51.660;5.824;2023-04-26T14:40:49;101830.0;;;14.1;45.5
60719;BME280;46567;51.660;5.824;2023-04-26T14:45:49;101830.0;;;14.0;45.0
60719;BME280;46567;51.660;5.824;2023-04-26T14:50:49;101830.0;;;13.9;45.0
60719;BME280;46567;51.660;5.824;2023-04-26T14:55:52;101820.0;;;13.7;45.5
60719;BME280;46567;51.660;5.824;2023-04-26T15:00:49;101820.0;;;13.5;46.0
60719;BME280;46567;51.660;5.824;2023-04-26T15:05:49;101810.0;;;13.3;47.0
60719;BME280;46567;51.660;5.824;2023-04-26T15:10:49;101820.0;;;13.2;46.5
60719;BME280;46567;51.660;5.824;2023-04-26T15:15:49;101820.0;;;13.2;47.0
60719;BME280;46567;51.660;5.824;2023-04-26T15:20:49;101820.0;;;13.3;47.0
60719;BME280;46567;51.660;5.824;2023-04-26T15:25:49;101800.0;;;13.3;46.5
60719;BME280;46567;51.660;5.824;2023-04-26T15:30:49;101810.0;;;13.3;45.0
60719;BME280;46567;51.660;5.824;2023-04-26T15:35:49;101800.0;;;13.3;46.5
60719;BME280;46567;51.660;5.824;2023-04-26T15:40:49;101800.0;;;13.3;46.0
60719;BME280;46567;51.660;5.824;2023-04-26T15:45:49;101800.0;;;13.4;46.0
60719;BME280;46567;51.660;5.824;2023-04-26T15:50:49;101800.0;;;13.3;45.5
60719;BME280;46567;51.660;5.824;2023-04-26T15:55:49;101810.0;;;13.2;46.5
60719;BME280;46567;51.660;5.824;2023-04-26T16:00:49;101810.0;;;13.2;47.0
60719;BME280;46567;51.660;5.824;2023-04-26T16:05:49;101810.0;;;13.0;48.0
60719;BME280;46567;51.660;5.824;2023-04-26T16:10:49;101820.0;;;13.0;48.0
60719;BME280;46567;51.660;5.824;2023-04-26T16:15:49;101810.0;;;12.9;47.5
60719;BME280;46567;51.660;5.824;2023-04-26T16:20:49;101810.0;;;12.7;46.5
60719;BME280;46567;51.660;5.824;2023-04-26T16:25:49;101810.0;;;12.6;47.5
60719;BME280;46567;51.660;5.824;2023-04-26T16:30:49;101810.0;;;12.6;47.5
60719;BME280;46567;51.660;5.824;2023-04-26T16:35:49;101820.0;;;12.6;48.0
60719;BME280;46567;51.660;5.824;2023-04-26T16:40:52;101810.0;;;12.6;48.0
60719;BME280;46567;51.660;5.824;2023-04-26T16:45:55;101800.0;;;12.5;48.5
60719;BME280;46567;51.660;5.824;2023-04-26T16:50:49;101810.0;;;12.4;48.0
60719;BME280;46567;51.660;5.824;2023-04-26T16:55:49;101810.0;;;12.4;49.0
60719;BME280;46567;51.660;5.824;2023-04-26T17:00:49;101810.0;;;12.5;49.5
60719;BME280;46567;51.660;5.824;2023-04-26T17:05:49;101800.0;;;12.6;49.0
60719;BME280;46567;51.660;5.824;2023-04-26T17:10:49;101810.0;;;12.5;48.5
60719;BME280;46567;51.660;5.824;2023-04-26T17:15:49;101810.0;;;12.5;49.5
60719;BME280;46567;51.660;5.824;2023-04-26T17:20:49;101810.0;;;12.4;49.5
60719;BME280;46567;51.660;5.824;2023-04-26T17:25:50;101820.0;;;12.2;50.0
60719;BME280;46567;51.660;5.824;2023-04-26T17:30:49;101820.0;;;12.0;50.5
60719;BME280;46567;51.660;5.824;2023-04-26T17:35:49;101810.0;;;11.9;51.0
60719;BME280;46567;51.660;5.824;2023-04-26T17:40:49;101820.0;;;11.8;51.5
60719;BME280;46567;51.660;5.824;2023-04-26T17:45:49;101820.0;;;11.7;52.5
60719;BME280;46567;51.660;5.824;2023-04-26T17:50:49;101830.0;;;11.6;51.5
60719;BME280;46567;51.660;5.824;2023-04-26T17:55:49;101840.0;;;11.5;52.0
60719;BME280;46567;51.660;5.824;2023-04-26T18:00:49;101840.0;;;11.5;52.0
60719;BME280;46567;51.660;5.824;2023-04-26T18:05:49;101830.0;;;11.3;52.5
60719;BME280;46567;51.660;5.824;2023-04-26T18:10:49;101840.0;;;11.3;52.5
60719;BME280;46567;51.660;5.824;2023-04-26T18:15:49;101840.0;;;11.2;52.5
60719;BME280;46567;51.660;5.824;2023-04-26T18:20:49;101850.0;;;11.2;53.0
60719;BME280;46567;51.660;5.824;2023-04-26T18:25:49;101850.0;;;11.1;53.0
60719;BME280;46567;51.660;5.824;2023-04-26T18:30:54;101840.0;;;11.0;53.5
60719;BME280;46567;51.660;5.824;2023-04-26T18:35:49;101850.0;;;10.9;54.5
60719;BME280;46567;51.660;5.824;2023-04-26T18:40:49;101840.0;;;10.9;55.0
60719;BME280;46567;51.660;5.824;2023-04-26T18:45:49;101850.0;;;10.7;55.0
60719;BME280;46567;51.660;5.824;2023-04-26T18:50:49;101860.0;;;10.7;55.5
60719;BME280;46567;51.660;5.824;2023-04-26T18:55:49;101860.0;;;10.7;56.0
60719;BME280;46567;51.660;5.824;2023-04-26T19:00:49;101860.0;;;10.7;57.0
60719;BME280;46567;51.660;5.824;2023-04-26T19:05:49;101870.0;;;10.5;57.0
60719;BME280;46567;51.660;5.824;2023-04-26T19:10:49;101870.0;;;10.5;57.5
60719;BME280;46567;51.660;5.824;2023-04-26T19:15:49;101870.0;;;10.4;57.5
60719;BME280;46567;51.660;5.824;2023-04-26T19:20:49;101880.0;;;10.3;58.0
60719;BME280;46567;51.660;5.824;2023-04-26T19:25:49;101890.0;;;10.3;58.0
60719;BME280;46567;51.660;5.824;2023-04-26T19:30:49;101890.0;;;10.1;59.0
60719;BME280;46567;51.660;5.824;2023-04-26T19:35:49;101900.0;;;10.2;59.0
60719;BME280;46567;51.660;5.824;2023-04-26T19:40:49;101890.0;;;10.1;59.5
60719;BME280;46567;51.660;5.824;2023-04-26T19:45:49;101900.0;;;10.1;59.5
60719;BME280;46567;51.660;5.824;2023-04-26T19:50:49;101900.0;;;10.1;59.0
60719;BME280;46567;51.660;5.824;2023-04-26T19:55:49;101900.0;;;10.1;59.0
60719;BME280;46567;51.660;5.824;2023-04-26T20:00:49;101910.0;;;10.0;59.0
60719;BME280;46567;51.660;5.824;2023-04-26T20:05:49;101910.0;;;10.0;59.0
60719;BME280;46567;51.660;5.824;2023-04-26T20:10:49;101910.0;;;10.0;59.5
60719;BME280;46567;51.660;5.824;2023-04-26T20:15:49;101910.0;;;9.9;60.5
60719;BME280;46567;51.660;5.824;2023-04-26T20:20:49;101920.0;;;9.8;61.0
60719;BME280;46567;51.660;5.824;2023-04-26T20:25:49;101930.0;;;9.7;61.0
60719;BME280;46567;51.660;5.824;2023-04-26T20:30:49;101920.0;;;9.6;61.5
60719;BME280;46567;51.660;5.824;2023-04-26T20:35:49;101920.0;;;9.5;61.5
60719;BME280;46567;51.660;5.824;2023-04-26T20:40:49;101920.0;;;9.4;62.0
60719;BME280;46567;51.660;5.824;2023-04-26T20:45:49;101920.0;;;9.3;62.5
60719;BME280;46567;51.660;5.824;2023-04-26T20:50:49;101920.0;;;9.3;62.5
60719;BME280;46567;51.660;5.824;2023-04-26T20:55:50;101910.0;;;9.2;62.5
60719;BME280;46567;51.660;5.824;2023-04-26T21:00:49;101920.0;;;9.2;63.0
60719;BME280;46567;51.660;5.824;2023-04-26T21:05:49;101920.0;;;9.2;63.0
60719;BME280;46567;51.660;5.824;2023-04-26T21:10:49;101920.0;;;9.1;63.0
60719;BME280;46567;51.660;5.824;2023-04-26T21:15:49;101930.0;;;9.1;63.0
60719;BME280;46567;51.660;5.824;2023-04-26T21:20:49;101930.0;;;9.0;63.0
60719;BME280;46567;51.660;5.824;2023-04-26T21:25:49;101940.0;;;8.8;63.5
60719;BME280;46567;51.660;5.824;2023-04-26T21:30:49;101940.0;;;8.7;63.5
60719;BME280;46567;51.660;5.824;2023-04-26T21:40:49;101930.0;;;8.5;64.5
60719;BME280;46567;51.660;5.824;2023-04-26T21:45:49;101940.0;;;8.4;65.0
60719;BME280;46567;51.660;5.824;2023-04-26T21:50:49;101940.0;;;8.3;65.0
60719;BME280;46567;51.660;5.824;2023-04-26T21:55:49;101940.0;;;8.1;65.5
60719;BME280;46567;51.660;5.824;2023-04-26T22:00:49;101930.0;;;8.0;66.0
60719;BME280;46567;51.660;5.824;2023-04-26T22:05:49;101930.0;;;7.9;66.5
60719;BME280;46567;51.660;5.824;2023-04-26T22:10:49;101940.0;;;7.8;66.5
60719;BME280;46567;51.660;5.824;2023-04-26T22:15:49;101940.0;;;7.6;66.5
60719;BME280;46567;51.660;5.824;2023-04-26T22:20:49;101940.0;;;7.5;67.0
60719;BME280;46567;51.660;5.824;2023-04-26T22:25:49;101940.0;;;7.2;67.5
60719;BME280;46567;51.660;5.824;2023-04-26T22:30:49;101950.0;;;7.1;67.5
60719;BME280;46567;51.660;5.824;2023-04-26T22:35:49;101950.0;;;7.0;68.0
60719;BME280;46567;51.660;5.824;2023-04-26T22:40:49;101940.0;;;6.9;68.0
60719;BME280;46567;51.660;5.824;2023-04-26T22:45:49;101950.0;;;6.9;68.0
60719;BME280;46567;51.660;5.824;2023-04-26T22:50:49;101950.0;;;6.8;68.5
60719;BME280;46567;51.660;5.824;2023-04-26T22:55:49;101950.0;;;6.7;68.5
60719;BME280;46567;51.660;5.824;2023-04-26T23:00:49;101950.0;;;6.7;69.0
60719;BME280;46567;51.660;5.824;2023-04-26T23:05:49;101960.0;;;6.6;69.0
60719;BME280;46567;51.660;5.824;2023-04-26T23:10:49;101970.0;;;6.6;69.0
60719;BME280;46567;51.660;5.824;2023-04-26T23:15:49;101970.0;;;6.5;69.0
60719;BME280;46567;51.660;5.824;2023-04-26T23:20:49;101980.0;;;6.4;69.5
60719;BME280;46567;51.660;5.824;2023-04-26T23:25:49;101980.0;;;6.4;69.0
60719;BME280;46567;51.660;5.824;2023-04-26T23:30:49;101980.0;;;6.3;69.5
60719;BME280;46567;51.660;5.824;2023-04-26T23:35:49;101990.0;;;6.2;69.5
60719;BME280;46567;51.660;5.824;2023-04-26T23:40:49;101980.0;;;6.2;69.5
60719;BME280;46567;51.660;5.824;2023-04-26T23:45:49;101990.0;;;6.1;69.5
60719;BME280;46567;51.660;5.824;2023-04-26T23:50:49;101990.0;;;6.1;70.0
60719;BME280;46567;51.660;5.824;2023-04-26T23:55:49;102000.0;;;6.0;70.0
